createdAt,value
2022-10-11T00:00:20.973Z,5.90
2022-10-11T00:02:48.627Z,6.60
2022-10-11T00:05:16.147Z,6.07
2022-10-11T00:07:43.895Z,6.30
2022-10-11T00:10:11.265Z,6.78
2022-10-11T00:12:38.984Z,6.68
2022-10-11T00:15:07.592Z,7.03
2022-10-11T00:17:34.964Z,8.50
2022-10-11T00:20:02.668Z,6.90
2022-10-11T00:22:30.186Z,6.65
2022-10-11T00:24:58.878Z,7.47
2022-10-11T00:27:26.250Z,6.57
2022-10-11T00:29:53.711Z,7.55
2022-10-11T00:32:21.076Z,10.65
2022-10-11T00:34:48.739Z,10.25
2022-10-11T00:37:16.225Z,11.15
2022-10-11T00:39:43.676Z,11.30
2022-10-11T00:42:15.013Z,9.95
2022-10-11T00:44:47.187Z,9.98
2022-10-11T00:47:22.466Z,10.48
2022-10-11T00:49:58.410Z,11.23
2022-10-11T00:52:32.082Z,10.00
2022-10-11T00:55:01.951Z,10.60
2022-10-11T00:57:31.329Z,11.18
2022-10-11T00:59:59.926Z,10.32
2022-10-11T01:02:27.566Z,10.57
2022-10-11T01:05:17.993Z,10.32
2022-10-11T01:07:43.629Z,10.45
2022-10-11T01:10:11.288Z,9.98
2022-10-11T01:12:42.447Z,9.98
2022-10-11T01:15:24.038Z,11.27
2022-10-11T01:17:51.389Z,10.30
2022-10-11T01:20:32.588Z,10.50
2022-10-11T01:23:25.874Z,9.88
2022-10-11T01:26:05.707Z,9.52
2022-10-11T01:28:53.407Z,9.70
2022-10-11T01:31:20.769Z,10.10
2022-10-11T01:33:55.617Z,8.82
2022-10-11T01:36:32.488Z,9.93
2022-10-11T01:39:18.677Z,8.68
2022-10-11T01:41:51.332Z,8.40
2022-10-11T01:44:19.707Z,8.40
2022-10-11T01:46:47.476Z,8.90
2022-10-11T01:49:14.930Z,8.43
2022-10-11T01:51:47.362Z,8.23
2022-10-11T01:54:50.180Z,7.93
2022-10-11T01:57:45.237Z,7.90
2022-10-11T02:00:18.912Z,8.48
2022-10-11T02:02:58.185Z,8.82
2022-10-11T02:05:44.246Z,7.70
2022-10-11T02:08:14.712Z,8.20
2022-10-11T02:10:55.832Z,8.32
2022-10-11T02:13:23.116Z,8.07
2022-10-11T02:15:51.503Z,8.38
2022-10-11T02:18:20.645Z,7.93
2022-10-11T02:20:48.628Z,7.18
2022-10-11T02:23:28.258Z,7.30
2022-10-11T02:25:57.161Z,7.22
2022-10-11T02:28:26.839Z,7.70
2022-10-11T02:30:55.031Z,7.97
2022-10-11T02:33:28.982Z,7.60
2022-10-11T02:36:00.352Z,7.40
2022-10-11T02:38:48.795Z,7.07
2022-10-11T02:41:23.160Z,6.53
2022-10-11T02:46:17.987Z,7.00
2022-10-11T02:48:45.333Z,7.60
2022-10-11T02:51:14.318Z,6.60
2022-10-11T02:53:41.621Z,7.15
2022-10-11T02:56:09.263Z,7.05
2022-10-11T02:58:36.990Z,7.35
2022-10-11T03:01:05.023Z,7.57
2022-10-11T03:03:32.465Z,7.38
2022-10-11T03:06:01.163Z,7.47
2022-10-11T03:08:29.135Z,7.43
2022-10-11T03:10:56.634Z,7.65
2022-10-11T03:13:24.281Z,7.32
2022-10-11T03:16:07.288Z,6.88
2022-10-11T03:18:35.600Z,7.28
2022-10-11T03:21:03.075Z,6.93
2022-10-11T03:23:30.541Z,7.07
2022-10-11T03:25:57.879Z,8.55
2022-10-11T03:28:25.210Z,7.50
2022-10-11T03:30:53.409Z,7.22
2022-10-11T03:33:20.964Z,7.97
2022-10-11T03:35:49.250Z,8.05
2022-10-11T03:38:18.159Z,8.13
2022-10-11T03:40:45.729Z,7.75
2022-10-11T03:43:13.135Z,8.13
2022-10-11T03:45:42.487Z,7.32
2022-10-11T03:48:10.979Z,7.95
2022-10-11T03:50:39.448Z,7.72
2022-10-11T03:53:07.416Z,6.95
2022-10-11T03:55:34.902Z,7.50
2022-10-11T03:58:02.349Z,7.30
2022-10-11T04:00:29.759Z,7.35
2022-10-11T04:02:57.306Z,8.05
2022-10-11T04:05:24.588Z,7.15
2022-10-11T04:07:52.219Z,7.28
2022-10-11T04:10:19.790Z,7.60
2022-10-11T04:12:47.281Z,7.35
2022-10-11T04:15:14.685Z,7.88
2022-10-11T04:17:42.875Z,8.00
2022-10-11T04:20:11.006Z,7.07
2022-10-11T04:22:38.967Z,7.63
2022-10-11T04:25:07.520Z,7.70
2022-10-11T04:27:35.366Z,7.78
2022-10-11T04:30:02.972Z,7.15
2022-10-11T04:32:30.692Z,7.30
2022-10-11T04:34:58.051Z,7.30
2022-10-11T04:37:25.515Z,7.97
2022-10-11T04:39:52.951Z,7.93
2022-10-11T04:42:20.830Z,8.50
2022-10-11T04:44:48.180Z,8.77
2022-10-11T04:47:15.769Z,8.25
2022-10-11T04:49:43.238Z,7.95
2022-10-11T04:52:10.757Z,8.65
2022-10-11T04:54:38.056Z,9.25
2022-10-11T04:57:05.725Z,9.52
2022-10-11T04:59:33.508Z,9.75
2022-10-11T05:02:01.020Z,10.00
2022-10-11T05:04:28.579Z,9.02
2022-10-11T05:06:56.281Z,9.25
2022-10-11T05:09:23.974Z,9.93
2022-10-11T05:11:51.340Z,9.57
2022-10-11T05:14:18.663Z,10.57
2022-10-11T05:16:46.344Z,9.13
2022-10-11T05:19:13.634Z,9.55
2022-10-11T05:21:41.021Z,8.80
2022-10-11T05:24:08.533Z,10.32
2022-10-11T05:26:37.334Z,9.45
2022-10-11T05:29:04.835Z,10.23
2022-10-11T05:31:33.011Z,10.18
2022-10-11T05:34:00.399Z,9.73
2022-10-11T05:36:27.738Z,9.75
2022-10-11T05:38:55.072Z,9.40
2022-10-11T05:41:22.561Z,9.38
2022-10-11T05:43:49.969Z,10.70
2022-10-11T05:46:17.537Z,11.75
2022-10-11T05:48:44.993Z,10.38
2022-10-11T05:51:12.865Z,10.80
2022-10-11T05:53:40.642Z,11.00
2022-10-11T05:56:18.597Z,10.63
2022-10-11T05:58:46.282Z,10.35
2022-10-11T06:01:17.946Z,11.20
2022-10-11T06:03:45.706Z,11.90
2022-10-11T06:06:13.419Z,10.05
2022-10-11T06:08:40.796Z,10.65
2022-10-11T06:11:15.586Z,10.18
2022-10-11T06:13:43.258Z,9.88
2022-10-11T06:16:11.211Z,9.52
2022-10-11T06:18:38.975Z,10.00
2022-10-11T06:21:06.769Z,11.20
2022-10-11T06:23:34.475Z,10.35
2022-10-11T06:26:07.536Z,10.68
2022-10-11T06:28:36.301Z,10.63
2022-10-11T06:31:05.419Z,11.10
2022-10-11T06:33:33.290Z,11.10
2022-10-11T06:36:01.773Z,11.43
2022-10-11T06:38:29.340Z,11.90
2022-10-11T06:40:56.989Z,12.05
2022-10-11T06:43:25.386Z,10.70
2022-10-11T06:45:53.144Z,12.80
2022-10-11T06:48:20.617Z,13.20
2022-10-11T06:50:59.652Z,11.63
2022-10-11T06:53:28.497Z,12.57
2022-10-11T06:56:02.447Z,11.52
2022-10-11T06:58:30.129Z,11.95
2022-10-11T07:01:00.845Z,12.02
2022-10-11T07:03:28.698Z,12.30
2022-10-11T07:06:02.653Z,13.13
2022-10-11T07:08:30.552Z,11.95
2022-10-11T07:11:04.054Z,12.18
2022-10-11T07:13:31.873Z,11.43
2022-10-11T07:16:01.965Z,12.43
2022-10-11T07:18:30.062Z,11.68
2022-10-11T07:20:58.318Z,12.48
2022-10-11T07:23:26.121Z,12.13
2022-10-11T07:25:55.181Z,11.73
2022-10-11T07:28:23.548Z,12.10
2022-10-11T07:30:51.111Z,12.25
2022-10-11T07:33:18.815Z,12.68
2022-10-11T07:35:48.558Z,12.27
2022-10-11T07:38:16.392Z,12.07
2022-10-11T07:40:45.813Z,14.30
2022-10-11T07:43:14.090Z,11.30
2022-10-11T07:45:42.490Z,10.48
2022-10-11T07:48:09.933Z,10.98
2022-10-11T07:50:37.584Z,12.15
2022-10-11T07:53:05.362Z,11.60
2022-10-11T07:55:40.425Z,13.15
2022-10-11T07:58:08.962Z,13.07
2022-10-11T08:00:36.374Z,12.50
2022-10-11T08:03:07.503Z,12.52
2022-10-11T08:05:35.103Z,12.43
2022-10-11T08:08:02.517Z,12.50
2022-10-11T08:10:30.093Z,13.60
2022-10-11T08:13:01.954Z,13.82
2022-10-11T08:15:31.457Z,14.00
2022-10-11T08:17:58.800Z,13.38
2022-10-11T08:20:26.525Z,12.77
2022-10-11T08:22:54.123Z,13.93
2022-10-11T08:25:21.492Z,15.27
2022-10-11T08:27:49.218Z,14.75
2022-10-11T08:30:16.758Z,14.50
2022-10-11T08:32:44.083Z,16.45
2022-10-11T08:35:11.533Z,17.92
2022-10-11T08:37:39.095Z,15.23
2022-10-11T08:40:07.123Z,15.23
2022-10-11T08:42:42.158Z,13.60
2022-10-11T08:45:19.813Z,14.57
2022-10-11T08:47:48.130Z,13.75
2022-10-11T08:50:20.956Z,12.55
2022-10-11T08:52:53.492Z,14.10
2022-10-11T08:55:27.232Z,10.90
2022-10-11T08:57:55.853Z,9.05
2022-10-11T09:00:24.034Z,10.45
2022-10-11T09:03:13.949Z,9.10
2022-10-11T09:06:01.721Z,9.20
2022-10-11T09:08:48.183Z,9.63
2022-10-11T09:11:21.108Z,9.07
2022-10-11T09:14:07.208Z,9.98
2022-10-11T09:16:34.650Z,9.38
2022-10-11T09:19:18.020Z,9.45
2022-10-11T09:22:04.750Z,10.60
2022-10-11T09:25:07.676Z,11.20
2022-10-11T09:28:01.895Z,10.85
2022-10-11T09:30:30.859Z,14.00
2022-10-11T09:33:04.705Z,13.32
2022-10-11T09:35:35.056Z,15.55
2022-10-11T09:38:02.332Z,13.73
2022-10-11T09:40:32.742Z,15.52
2022-10-11T09:43:00.443Z,15.60
2022-10-11T09:45:28.395Z,14.98
2022-10-11T09:47:57.443Z,15.55
2022-10-11T09:50:30.828Z,14.80
2022-10-11T09:53:05.020Z,13.17
2022-10-11T09:55:34.294Z,13.95
2022-10-11T09:58:01.701Z,12.15
2022-10-11T10:00:32.584Z,10.98
2022-10-11T10:03:06.794Z,12.68
2022-10-11T10:05:37.056Z,9.88
2022-10-11T10:08:10.711Z,8.48
2022-10-11T10:10:46.329Z,7.03
2022-10-11T10:13:23.245Z,7.05
2022-10-11T10:15:53.894Z,7.35
2022-10-11T10:18:26.179Z,8.82
2022-10-11T10:20:55.167Z,8.02
2022-10-11T10:23:24.414Z,7.90
2022-10-11T10:25:52.349Z,7.35
2022-10-11T10:28:24.487Z,7.18
2022-10-11T10:30:54.558Z,6.82
2022-10-11T10:33:23.470Z,6.90
2022-10-11T10:36:09.802Z,6.85
2022-10-11T10:38:41.340Z,8.63
2022-10-11T10:41:13.497Z,7.75
2022-10-11T10:43:42.640Z,8.75
2022-10-11T10:46:25.600Z,8.52
2022-10-11T10:52:17.712Z,8.63
2022-10-11T10:54:50.876Z,8.60
2022-10-11T10:57:32.804Z,6.30
2022-10-11T11:00:04.027Z,5.55
2022-10-11T11:02:40.694Z,5.40
2022-10-11T11:05:08.747Z,7.22
2022-10-11T11:07:52.875Z,7.93
2022-10-11T11:10:22.794Z,6.85
2022-10-11T11:12:53.308Z,7.00
2022-10-11T11:15:32.029Z,5.82
2022-10-11T11:17:59.886Z,6.90
2022-10-11T11:20:42.447Z,5.82
2022-10-11T11:23:28.438Z,6.13
2022-10-11T11:26:02.728Z,7.25
2022-10-11T11:28:33.745Z,4.60
2022-10-11T11:31:01.111Z,5.55
2022-10-11T11:33:31.824Z,4.75
2022-10-11T11:36:03.414Z,5.50
2022-10-11T11:38:45.764Z,5.25
2022-10-11T11:41:24.015Z,5.88
2022-10-11T11:43:57.752Z,6.30
2022-10-11T11:46:30.756Z,6.03
2022-10-11T11:48:59.943Z,5.88
2022-10-11T11:51:33.902Z,6.82
2022-10-11T11:54:06.369Z,6.50
2022-10-11T11:56:46.078Z,6.07
2022-10-11T11:59:43.256Z,6.82
2022-10-11T12:02:16.756Z,5.97
2022-10-11T12:04:45.706Z,6.90
2022-10-11T12:07:17.068Z,6.93
2022-10-11T12:09:52.847Z,7.22
2022-10-11T12:12:26.410Z,6.80
2022-10-11T12:15:03.388Z,6.63
2022-10-11T12:17:30.831Z,6.82
2022-10-11T12:20:24.519Z,6.40
2022-10-11T12:23:02.372Z,6.05
2022-10-11T12:25:31.673Z,6.45
2022-10-11T12:27:59.910Z,6.25
2022-10-11T12:30:48.630Z,6.68
2022-10-11T12:33:18.087Z,6.10
2022-10-11T12:36:08.424Z,6.50
2022-10-11T12:38:38.002Z,6.35
2022-10-11T12:41:13.439Z,7.20
2022-10-11T12:43:49.858Z,7.25
2022-10-11T12:46:29.500Z,7.30
2022-10-11T12:49:13.746Z,6.47
2022-10-11T12:51:46.924Z,7.25
2022-10-11T12:54:33.291Z,7.25
2022-10-11T12:57:12.392Z,7.10
2022-10-11T12:59:42.798Z,6.93
2022-10-11T13:02:24.466Z,7.05
2022-10-11T13:04:51.984Z,6.70
2022-10-11T13:07:23.837Z,6.85
2022-10-11T13:09:54.433Z,7.60
2022-10-11T13:12:23.529Z,6.78
2022-10-11T13:15:12.856Z,6.50
2022-10-11T13:17:40.702Z,6.55
2022-10-11T13:20:17.841Z,6.05
2022-10-11T13:22:47.690Z,6.72
2022-10-11T13:25:19.948Z,6.35
2022-10-11T13:27:48.240Z,6.45
2022-10-11T13:30:25.668Z,9.32
2022-10-11T13:32:53.802Z,6.40
2022-10-11T13:35:29.766Z,6.72
2022-10-11T13:37:57.479Z,6.45
2022-10-11T13:40:25.023Z,6.05
2022-10-11T13:42:53.165Z,6.90
2022-10-11T13:45:21.956Z,6.35
2022-10-11T13:47:50.032Z,6.35
2022-10-11T13:50:23.928Z,4.85
2022-10-11T13:52:55.777Z,4.97
2022-10-11T13:55:25.111Z,6.85
2022-10-11T13:57:52.570Z,6.68
2022-10-11T14:00:25.123Z,8.60
2022-10-11T14:02:52.657Z,9.77
2022-10-11T14:05:32.495Z,7.50
2022-10-11T14:08:01.477Z,7.95
2022-10-11T14:10:29.934Z,8.00
2022-10-11T14:13:00.609Z,8.20
2022-10-11T14:15:28.710Z,7.43
2022-10-11T14:17:56.103Z,7.93
2022-10-11T14:20:23.543Z,7.63
2022-10-11T14:22:54.841Z,7.63
2022-10-11T14:25:22.596Z,6.90
2022-10-11T14:27:50.303Z,7.50
2022-10-11T14:30:25.613Z,6.80
2022-10-11T14:32:56.001Z,6.20
2022-10-11T14:35:25.589Z,7.38
2022-10-11T14:37:53.430Z,9.00
2022-10-11T14:40:24.549Z,6.95
2022-10-11T14:42:52.149Z,6.82
2022-10-11T14:45:21.579Z,6.18
2022-10-11T14:47:49.742Z,6.22
2022-10-11T14:50:23.753Z,6.40
2022-10-11T14:52:51.467Z,7.00
2022-10-11T14:55:19.274Z,7.20
2022-10-11T14:57:46.912Z,8.75
2022-10-11T15:00:20.786Z,7.80
2022-10-11T15:02:48.453Z,8.68
2022-10-11T15:05:15.909Z,7.63
2022-10-11T15:07:43.406Z,8.15
2022-10-11T15:10:20.343Z,7.90
2022-10-11T15:12:47.747Z,7.65
2022-10-11T15:15:22.901Z,8.00
2022-10-11T15:17:59.804Z,8.07
2022-10-11T15:20:29.176Z,8.18
2022-10-11T15:22:57.414Z,7.78
2022-10-11T15:25:25.039Z,8.88
2022-10-11T15:27:52.440Z,9.82
2022-10-11T15:30:23.219Z,9.10
2022-10-11T15:32:51.030Z,8.50
2022-10-11T15:35:19.113Z,8.05
2022-10-11T15:37:46.829Z,7.88
2022-10-11T15:40:14.568Z,8.02
2022-10-11T15:42:42.564Z,9.30
2022-10-11T15:45:10.429Z,8.02
2022-10-11T15:47:38.140Z,7.28
2022-10-11T15:50:11.865Z,8.20
2022-10-11T15:52:39.219Z,8.25
2022-10-11T15:55:06.807Z,6.97
2022-10-11T15:57:34.111Z,7.40
2022-10-11T16:00:01.443Z,7.53
2022-10-11T16:02:29.182Z,7.85
2022-10-11T16:04:56.628Z,8.18
2022-10-11T16:07:24.029Z,8.68
2022-10-11T16:09:51.467Z,8.18
2022-10-11T16:12:19.222Z,8.55
2022-10-11T16:14:47.411Z,8.98
2022-10-11T16:17:14.816Z,9.82
2022-10-11T16:19:42.148Z,10.60
2022-10-11T16:22:09.829Z,10.95
2022-10-11T16:24:37.292Z,10.48
2022-10-11T16:27:04.787Z,9.40
2022-10-11T16:29:32.251Z,11.95
2022-10-11T16:31:59.974Z,9.98
2022-10-11T16:34:27.646Z,10.82
2022-10-11T16:36:54.983Z,10.35
2022-10-11T16:39:22.430Z,9.05
2022-10-11T16:41:50.110Z,10.52
2022-10-11T16:44:18.833Z,10.27
2022-10-11T16:46:49.562Z,10.23
2022-10-11T16:49:18.048Z,11.30
2022-10-11T16:51:45.393Z,10.02
2022-10-11T16:54:16.614Z,11.38
2022-10-11T16:56:46.861Z,11.18
2022-10-11T16:59:14.147Z,11.02
2022-10-11T17:01:41.647Z,10.95
2022-10-11T17:04:08.973Z,10.95
2022-10-11T17:06:36.325Z,11.18
2022-10-11T17:09:04.554Z,11.75
2022-10-11T17:11:31.937Z,12.00
2022-10-11T17:14:01.151Z,11.35
2022-10-11T17:16:28.558Z,13.35
2022-10-11T17:18:56.038Z,12.10
2022-10-11T17:21:23.490Z,12.77
2022-10-11T17:23:51.156Z,12.55
2022-10-11T17:26:20.193Z,13.32
2022-10-11T17:28:47.814Z,18.42
2022-10-11T17:31:15.271Z,17.85
2022-10-11T17:33:42.595Z,15.65
2022-10-11T17:36:28.177Z,17.15
2022-10-11T17:38:55.985Z,17.63
2022-10-11T17:41:25.967Z,18.83
2022-10-11T17:43:55.551Z,20.67
2022-10-11T17:46:25.325Z,20.88
2022-10-11T17:48:55.737Z,19.60
2022-10-11T17:51:23.192Z,20.52
2022-10-11T17:53:51.308Z,18.83
2022-10-11T17:56:25.321Z,20.42
2022-10-11T17:58:56.368Z,18.80
2022-10-11T18:01:24.890Z,19.13
2022-10-11T18:03:53.999Z,16.17
2022-10-11T18:06:21.668Z,14.55
2022-10-11T18:08:49.315Z,14.52
2022-10-11T18:11:18.750Z,14.32
2022-10-11T18:13:48.796Z,14.80
2022-10-11T18:16:17.395Z,15.73
2022-10-11T18:18:44.982Z,15.07
2022-10-11T18:21:12.646Z,15.88
2022-10-11T18:23:40.271Z,14.60
2022-10-11T18:26:10.843Z,15.05
2022-10-11T18:28:38.683Z,15.18
2022-10-11T18:31:13.203Z,14.30
2022-10-11T18:33:41.151Z,38.53
2022-10-11T18:36:09.610Z,19.42
2022-10-11T18:38:38.372Z,13.95
2022-10-11T18:41:07.372Z,13.73
2022-10-11T18:43:35.703Z,12.82
2022-10-11T18:46:04.818Z,14.43
2022-10-11T18:48:33.031Z,15.77
2022-10-11T18:51:08.523Z,15.68
2022-10-11T18:53:36.645Z,14.43
2022-10-11T18:56:05.319Z,14.90
2022-10-11T18:58:33.887Z,14.68
2022-10-11T19:01:13.561Z,13.63
2022-10-11T19:03:40.897Z,14.82
2022-10-11T19:06:11.310Z,14.50
2022-10-11T19:08:38.986Z,15.15
2022-10-11T19:11:09.934Z,15.45
2022-10-11T19:13:37.639Z,15.60
2022-10-11T19:16:09.154Z,15.48
2022-10-11T19:18:40.512Z,16.05
2022-10-11T19:21:12.964Z,16.88
2022-10-11T19:23:42.415Z,16.95
2022-10-11T19:26:13.218Z,17.30
2022-10-11T19:28:41.044Z,18.45
2022-10-11T19:31:09.924Z,16.85
2022-10-11T19:33:37.752Z,17.27
2022-10-11T19:36:06.961Z,18.20
2022-10-11T19:38:35.551Z,17.90
2022-10-11T19:41:03.731Z,15.77
2022-10-11T19:43:31.410Z,14.75
2022-10-11T19:46:02.928Z,15.23
2022-10-11T19:48:30.528Z,15.80
2022-10-11T19:51:08.642Z,15.82
2022-10-11T19:53:36.598Z,16.67
2022-10-11T19:56:05.017Z,16.95
2022-10-11T19:58:32.524Z,16.75
2022-10-11T20:01:04.294Z,16.92
2022-10-11T20:03:32.379Z,15.63
2022-10-11T20:06:02.969Z,17.00
2022-10-11T20:08:31.620Z,18.45
2022-10-11T20:10:59.810Z,16.92
2022-10-11T20:13:31.147Z,17.77
2022-10-11T20:16:03.166Z,17.88
2022-10-11T20:18:30.845Z,17.80
2022-10-11T20:20:59.892Z,15.68
2022-10-11T20:23:28.025Z,17.02
2022-10-11T20:26:04.550Z,25.60
2022-10-11T20:28:33.317Z,22.15
2022-10-11T20:31:01.554Z,19.55
2022-10-11T20:33:29.542Z,20.90
2022-10-11T20:36:03.138Z,18.65
2022-10-11T20:38:31.827Z,17.70
2022-10-11T20:40:59.666Z,18.45
2022-10-11T20:43:27.122Z,17.77
2022-10-11T20:46:02.226Z,17.45
2022-10-11T20:48:30.195Z,16.60
2022-10-11T20:50:57.787Z,16.45
2022-10-11T20:53:25.307Z,16.02
2022-10-11T20:55:52.911Z,16.55
2022-10-11T20:58:20.856Z,16.92
2022-10-11T21:00:48.716Z,16.65
2022-10-11T21:03:16.848Z,17.88
2022-10-11T21:05:44.662Z,18.02
2022-10-11T21:08:11.976Z,16.60
2022-10-11T21:10:39.787Z,16.73
2022-10-11T21:13:07.185Z,16.75
2022-10-11T21:15:34.635Z,15.35
2022-10-11T21:18:02.181Z,17.25
2022-10-11T21:20:29.461Z,16.98
2022-10-11T21:22:57.010Z,16.10
2022-10-11T21:25:24.323Z,15.05
2022-10-11T21:27:51.633Z,16.42
2022-10-11T21:30:18.968Z,15.70
2022-10-11T21:32:46.428Z,16.63
2022-10-11T21:35:14.154Z,16.40
2022-10-11T21:37:41.733Z,17.33
2022-10-11T21:40:09.227Z,17.05
2022-10-11T21:42:36.850Z,17.23
2022-10-11T21:45:05.957Z,17.45
2022-10-11T21:47:38.070Z,18.27
2022-10-11T21:50:06.763Z,19.48
2022-10-11T21:52:34.896Z,18.20
2022-10-11T21:55:02.454Z,18.98
2022-10-11T21:57:29.792Z,19.23
2022-10-11T21:59:57.438Z,18.60
2022-10-11T22:02:24.758Z,17.88
2022-10-11T22:04:52.202Z,19.77
2022-10-11T22:07:19.469Z,17.80
2022-10-11T22:09:47.055Z,19.45
2022-10-11T22:12:14.427Z,17.90
2022-10-11T22:14:41.849Z,18.08
2022-10-11T22:17:09.137Z,17.95
2022-10-11T22:19:37.972Z,18.23
2022-10-11T22:22:05.878Z,18.67
2022-10-11T22:24:33.339Z,18.00
2022-10-11T22:27:00.834Z,18.30
2022-10-11T22:29:33.208Z,19.27
2022-10-11T22:32:01.768Z,18.42
2022-10-11T22:34:33.178Z,18.98
2022-10-11T22:37:00.849Z,17.52
2022-10-11T22:39:28.149Z,18.15
2022-10-11T22:41:55.511Z,18.23
2022-10-11T22:44:22.837Z,18.08
2022-10-11T22:46:50.269Z,19.45
2022-10-11T22:49:17.575Z,18.83
2022-10-11T22:51:44.927Z,19.65
2022-10-11T22:54:12.409Z,21.00
2022-10-11T22:56:39.762Z,18.42
2022-10-11T22:59:07.882Z,19.10
2022-10-11T23:01:35.664Z,18.05
2022-10-11T23:04:03.040Z,16.77
2022-10-11T23:06:30.491Z,15.65
2022-10-11T23:08:58.024Z,15.55
2022-10-11T23:11:25.668Z,15.82
2022-10-11T23:13:53.385Z,15.70
2022-10-11T23:16:20.904Z,16.60
2022-10-11T23:18:48.241Z,18.05
2022-10-11T23:21:15.610Z,17.85
2022-10-11T23:23:43.022Z,17.83
2022-10-11T23:26:13.029Z,17.88
2022-10-11T23:28:40.997Z,17.38
2022-10-11T23:31:13.069Z,18.25
2022-10-11T23:33:40.874Z,18.30
2022-10-11T23:36:14.066Z,17.60
2022-10-11T23:38:41.529Z,18.67
2022-10-11T23:41:09.262Z,18.58
2022-10-11T23:43:36.548Z,18.20
2022-10-11T23:46:04.465Z,18.20
2022-10-11T23:48:32.175Z,19.58
2022-10-11T23:50:59.488Z,18.63
2022-10-11T23:53:26.786Z,20.35
2022-10-11T23:55:54.131Z,19.70
2022-10-11T23:58:21.560Z,21.65
